Flight Track Log - Related Links

Times and Time Zones

All times are in EDT time to prevent confusion due to time zone crossing. See the VNR160 flight status page for this flight to view local times or setup timezone preferences in your user account.

Time Position Orientation Groundspeed Altitude Reporting Facility
EDT Latitude Longitude Course Direction KTS MPH feet Rate Location/Type
Sat 08:02:35 PM 28.7833 -81.2167 69° East 162 186 600  Level Orlando TRACON
Sat 08:03:41 PM 28.8000 -81.1667 69° East 168 193 2,900 1,857 Climbing Orlando TRACON
Sat 08:04:41 PM 28.8167 -81.1167 69° East 192 221 4,500 1,100 Climbing Orlando TRACON
Sat 08:05:41 PM 28.8333 -81.1833 286° West 214 246 5,100 1,200 Climbing Orlando TRACON
Sat 08:06:41 PM 28.8500 -81.2500 286° West 228 262 6,900 1,950 Climbing Orlando TRACON
Sat 08:07:41 PM 28.8500 -81.3000 270° West 180 207 9,000 1,600 Climbing Orlando TRACON
Sat 08:08:41 PM 28.8333 -81.3667 254° West 195 224 10,100 500 Climbing Orlando TRACON
Sat 08:09:41 PM 28.8167 -81.4333 254° West 255 293 10,000  Descending Orlando TRACON
Sat 08:10:35 PM 28.7833 -81.5167 245° Southwest 278 320 10,100 53 Climbing Orlando TRACON
Sat 08:11:35 PM 28.7500 -81.5833 240° Southwest 283 326 10,100  Level Orlando TRACON
Sat 08:12:35 PM 28.7000 -81.6667 236° Southwest 275 316 10,100  Level Orlando TRACON
Sat 08:13:35 PM 28.6667 -81.7333 240° Southwest 271 312 10,100  Level Orlando TRACON
Sat 08:14:35 PM 28.6167 -81.8000 229° Southwest 280 322 10,100  Level Orlando TRACON
Sat 08:15:41 PM 28.5667 -81.8833 236° Southwest 282 325 10,100  Level Orlando TRACON
Sat 08:16:35 PM 28.5167 -81.9500 230° Southwest 289 333 10,100  Level Tampa TRACON
Sat 08:17:35 PM 28.4667 -82.0000 221° Southwest 288 331 10,100  Level Tampa TRACON
Sat 08:18:29 PM 28.4167 -82.0667 230° Southwest 284 327 10,100 -842 Level Tampa TRACON
Sat 08:19:29 PM 28.3500 -82.1167 213° Southwest 284 327 8,500 -1,750 Descending Tampa TRACON
Sat 08:20:29 PM 28.3000 -82.1833 230° Southwest 272 313 6,600 -1,952 Descending Tampa TRACON
Sat 08:21:35 PM 28.2333 -82.2167 204° Southwest 270 311 4,400 -1,750 Descending Tampa TRACON
Sat 08:22:29 PM 28.1667 -82.2500 204° Southwest 264 304 3,100 -684 Descending Tampa TRACON
Sat 08:23:29 PM 28.1000 -82.2833 204° Southwest 247 284 3,100  Level Tampa TRACON
Sat 08:24:29 PM 28.0333 -82.3333 214° Southwest 255 293 3,100 -150 Level Tampa TRACON
Sat 08:25:29 PM 27.9833 -82.3667 210° Southwest 227 261 2,800 -667 Descending Tampa TRACON
Sat 08:26:35 PM 27.9500 -82.4167 233° Southwest 199 229 1,700 -614 Descending Tampa TRACON
Sat 08:27:36 PM 27.9333 -82.4667 249° West 164 189 1,500 -298 Descending Tampa TRACON
Sat 08:28:36 PM 27.9333 -82.5167 270° West 145 167 1,100 -400 Descending Tampa TRACON
Sat 08:30:00 PM 27.9667 -82.5167 350° North  Level FlightAware Approximate
Sat 08:37:00 PM 27.9755 -82.5332 350° North  Level Estimated

Login

Don't have an account? Register now (free) for customized features, flight alerts, and more!